createdAt,value
2018-07-22T00:00:59.000Z,33.1
2018-07-22T00:02:59.000Z,33.1
2018-07-22T00:03:59.000Z,33.1
2018-07-22T00:05:59.000Z,33.1
2018-07-22T00:06:59.000Z,33.1
2018-07-22T00:07:59.000Z,33.2
2018-07-22T00:08:59.000Z,33.2
2018-07-22T00:10:59.000Z,33.2
2018-07-22T00:11:59.000Z,33.2
2018-07-22T00:12:59.000Z,33.2
2018-07-22T00:14:59.000Z,33.2
2018-07-22T00:15:59.000Z,33.2
2018-07-22T00:17:59.000Z,33.3
2018-07-22T00:19:59.000Z,33.2
2018-07-22T00:21:59.000Z,33.1
2018-07-22T00:22:59.000Z,33.1
2018-07-22T00:24:59.000Z,33.1
2018-07-22T00:25:59.000Z,33.1
2018-07-22T00:26:59.000Z,33.2
2018-07-22T00:27:59.000Z,33.2
2018-07-22T00:28:59.000Z,33.3
2018-07-22T00:29:59.000Z,33.4
2018-07-22T00:33:45.000Z,32.9
2018-07-22T00:34:45.000Z,32.9
2018-07-22T00:36:45.000Z,32.9
2018-07-22T00:37:45.000Z,32.9
2018-07-22T00:39:45.000Z,33
2018-07-22T00:40:45.000Z,33
2018-07-22T00:42:29.000Z,33
2018-07-22T00:43:45.000Z,33
2018-07-22T00:44:45.000Z,33
2018-07-22T00:46:45.000Z,33.1
2018-07-22T00:48:45.000Z,33.1
2018-07-22T00:50:45.000Z,33.1
2018-07-22T00:52:45.000Z,33.1
2018-07-22T00:53:45.000Z,33.1
2018-07-22T00:55:45.000Z,33.1
2018-07-22T00:56:45.000Z,33.2
2018-07-22T00:57:45.000Z,33.2
2018-07-22T00:59:45.000Z,33.3
2018-07-22T01:01:45.000Z,33.2
2018-07-22T01:02:45.000Z,33.2
2018-07-22T01:04:45.000Z,33.2
2018-07-22T01:05:45.000Z,33.1
2018-07-22T01:07:29.000Z,33.2
2018-07-22T01:08:45.000Z,33.1
2018-07-22T01:10:45.000Z,33.1
2018-07-22T01:11:45.000Z,33.1
2018-07-22T01:12:45.000Z,33.2
2018-07-22T01:14:45.000Z,33.2
2018-07-22T01:16:45.000Z,33.2
2018-07-22T01:18:45.000Z,33.1
2018-07-22T01:20:29.000Z,33.1
2018-07-22T01:21:45.000Z,33
2018-07-22T01:23:45.000Z,33
2018-07-22T01:24:45.000Z,33
2018-07-22T01:26:45.000Z,33
2018-07-22T01:27:45.000Z,33
2018-07-22T01:29:45.000Z,33.1
2018-07-22T01:31:45.000Z,33
2018-07-22T01:32:45.000Z,33
2018-07-22T01:34:45.000Z,33
2018-07-22T01:35:45.000Z,33
2018-07-22T01:37:29.000Z,33.1
2018-07-22T01:38:45.000Z,33
2018-07-22T01:39:45.000Z,33
2018-07-22T01:41:45.000Z,33.1
2018-07-22T01:42:45.000Z,33.1
2018-07-22T01:43:45.000Z,33.1
2018-07-22T01:44:45.000Z,33.2
2018-07-22T01:46:45.000Z,33.2
2018-07-22T01:48:45.000Z,33.2
2018-07-22T01:49:45.000Z,33.2
2018-07-22T01:50:45.000Z,33.2
2018-07-22T01:51:45.000Z,33.2
2018-07-22T01:53:29.000Z,33.3
2018-07-22T01:54:45.000Z,33.2
2018-07-22T01:56:45.000Z,33.2
2018-07-22T01:57:45.000Z,33.2
2018-07-22T01:59:45.000Z,33.2
2018-07-22T02:01:45.000Z,33.2
2018-07-22T02:03:45.000Z,33.1
2018-07-22T02:04:45.000Z,33.1
2018-07-22T02:05:45.000Z,33.2
2018-07-22T02:06:45.000Z,33.2
2018-07-22T02:08:45.000Z,33.2
2018-07-22T02:10:45.000Z,33.2
2018-07-22T02:12:45.000Z,33.1
2018-07-22T02:14:45.000Z,33
2018-07-22T02:16:45.000Z,32.9
2018-07-22T02:17:45.000Z,32.9
2018-07-22T02:19:45.000Z,33
2018-07-22T02:21:45.000Z,33
2018-07-22T02:22:45.000Z,33
2018-07-22T02:24:45.000Z,32.9
2018-07-22T02:25:45.000Z,32.9
2018-07-22T02:27:45.000Z,33
2018-07-22T02:29:45.000Z,33
2018-07-22T02:30:45.000Z,33
2018-07-22T02:31:45.000Z,33
2018-07-22T02:32:45.000Z,33
2018-07-22T02:34:45.000Z,33
2018-07-22T02:36:45.000Z,33
2018-07-22T02:38:45.000Z,33
2018-07-22T02:40:45.000Z,32.9
2018-07-22T02:42:45.000Z,32.8
2018-07-22T02:44:45.000Z,32.8
2018-07-22T02:45:45.000Z,32.8
2018-07-22T02:47:45.000Z,32.7
2018-07-22T02:48:45.000Z,32.7
2018-07-22T02:50:45.000Z,32.8
2018-07-22T02:52:45.000Z,32.8
2018-07-22T02:53:45.000Z,32.8
2018-07-22T02:55:45.000Z,32.9
2018-07-22T02:56:45.000Z,32.9
2018-07-22T02:58:45.000Z,33
2018-07-22T03:00:45.000Z,33
2018-07-22T03:01:45.000Z,33
2018-07-22T03:02:45.000Z,33
2018-07-22T03:04:45.000Z,33.1
2018-07-22T03:05:45.000Z,33.1
2018-07-22T03:06:45.000Z,33.2
2018-07-22T03:08:45.000Z,33.2
2018-07-22T03:09:45.000Z,33.2
2018-07-22T03:10:45.000Z,33.2
2018-07-22T03:12:45.000Z,33.2
2018-07-22T03:14:45.000Z,33.1
2018-07-22T03:16:45.000Z,33.1
2018-07-22T03:18:45.000Z,33
2018-07-22T03:19:45.000Z,33
2018-07-22T03:20:45.000Z,33
2018-07-22T03:22:45.000Z,33.1
2018-07-22T03:24:45.000Z,33
2018-07-22T03:26:45.000Z,32.9
2018-07-22T03:27:45.000Z,32.9
2018-07-22T03:28:45.000Z,33
2018-07-22T03:30:45.000Z,33.1
2018-07-22T03:32:45.000Z,32.9
2018-07-22T03:33:45.000Z,32.9
2018-07-22T03:35:45.000Z,32.9
2018-07-22T03:36:45.000Z,32.9
2018-07-22T03:38:45.000Z,32.9
2018-07-22T03:39:45.000Z,32.9
2018-07-22T03:41:45.000Z,32.9
2018-07-22T03:42:45.000Z,32.9
2018-07-22T03:44:45.000Z,33
2018-07-22T03:46:45.000Z,33
2018-07-22T03:48:45.000Z,32.9
2018-07-22T03:49:45.000Z,32.8
2018-07-22T03:51:30.000Z,32.8
2018-07-22T03:52:45.000Z,32.8
2018-07-22T03:53:45.000Z,32.8
2018-07-22T03:55:45.000Z,32.8
2018-07-22T03:57:45.000Z,32.8
2018-07-22T03:58:45.000Z,32.8
2018-07-22T03:59:45.000Z,32.9
2018-07-22T04:01:45.000Z,33
2018-07-22T04:02:45.000Z,33
2018-07-22T04:03:45.000Z,33.1
2018-07-22T04:05:45.000Z,33.1
2018-07-22T04:06:45.000Z,33.1
2018-07-22T04:07:45.000Z,33.1
2018-07-22T04:09:45.000Z,33
2018-07-22T04:11:45.000Z,33
2018-07-22T04:12:45.000Z,33
2018-07-22T04:14:45.000Z,33
2018-07-22T04:16:45.000Z,32.9
2018-07-22T04:17:45.000Z,32.9
2018-07-22T04:19:45.000Z,33
2018-07-22T04:21:45.000Z,33
2018-07-22T04:22:45.000Z,33
2018-07-22T04:24:45.000Z,33
2018-07-22T04:26:45.000Z,33
2018-07-22T04:28:45.000Z,33
2018-07-22T04:29:45.000Z,33
2018-07-22T04:30:45.000Z,33
2018-07-22T04:32:45.000Z,33
2018-07-22T04:33:45.000Z,33.1
2018-07-22T04:34:45.000Z,33.1
2018-07-22T04:35:45.000Z,33.1
2018-07-22T04:36:45.000Z,33.1
2018-07-22T04:38:45.000Z,33.2
2018-07-22T04:40:45.000Z,33.1
2018-07-22T04:42:45.000Z,33.1
2018-07-22T04:44:30.000Z,33.1
2018-07-22T04:45:45.000Z,33
2018-07-22T04:47:30.000Z,33
2018-07-22T04:48:45.000Z,33
2018-07-22T04:49:45.000Z,33.1
2018-07-22T04:50:45.000Z,33.1
2018-07-22T04:52:45.000Z,33.1
2018-07-22T04:53:45.000Z,33.1
2018-07-22T04:55:45.000Z,33.1
2018-07-22T04:56:45.000Z,33.1
2018-07-22T04:58:45.000Z,33
2018-07-22T05:00:45.000Z,33
2018-07-22T05:02:45.000Z,33
2018-07-22T05:04:45.000Z,33
2018-07-22T05:05:45.000Z,33.1
2018-07-22T05:07:45.000Z,33.2
2018-07-22T05:09:45.000Z,33.2
2018-07-22T05:11:45.000Z,33.2
2018-07-22T05:13:45.000Z,33.2
2018-07-22T05:15:29.000Z,33.2
2018-07-22T05:16:45.000Z,33.2
2018-07-22T05:17:45.000Z,33.2
2018-07-22T05:19:45.000Z,33.2
2018-07-22T05:20:45.000Z,33.2
2018-07-22T05:21:45.000Z,33.3
2018-07-22T05:23:45.000Z,33.4
2018-07-22T05:24:45.000Z,33.4
2018-07-22T05:26:45.000Z,33.4
2018-07-22T05:27:45.000Z,33.4
2018-07-22T05:29:45.000Z,33.4
2018-07-22T05:30:45.000Z,33.5
2018-07-22T05:31:45.000Z,33.5
2018-07-22T05:33:45.000Z,33.5
2018-07-22T05:35:45.000Z,33.5
2018-07-22T05:36:45.000Z,33.5
2018-07-22T05:38:45.000Z,33.5
2018-07-22T05:39:45.000Z,33.5
2018-07-22T05:41:45.000Z,33.6
2018-07-22T05:43:29.000Z,33.6
2018-07-22T05:44:45.000Z,33.5
2018-07-22T05:45:45.000Z,33.5
2018-07-22T05:47:45.000Z,33.6
2018-07-22T05:48:45.000Z,33.6
2018-07-22T05:50:45.000Z,33.7
2018-07-22T05:51:45.000Z,33.6
2018-07-22T05:53:45.000Z,33.6
2018-07-22T05:55:45.000Z,33.6
2018-07-22T05:56:45.000Z,33.6
2018-07-22T05:57:45.000Z,33.7
2018-07-22T05:59:45.000Z,33.7
2018-07-22T06:00:45.000Z,33.7
2018-07-22T06:01:45.000Z,33.8
2018-07-22T06:03:45.000Z,33.8
2018-07-22T06:04:45.000Z,33.8
2018-07-22T06:05:45.000Z,33.8
2018-07-22T06:07:45.000Z,33.8
2018-07-22T06:08:45.000Z,33.8
2018-07-22T06:10:29.000Z,33.8
2018-07-22T06:11:45.000Z,33.8
2018-07-22T06:12:45.000Z,33.8
2018-07-22T06:13:45.000Z,33.8
2018-07-22T06:15:45.000Z,33.8
2018-07-22T06:17:45.000Z,33.8
2018-07-22T06:18:45.000Z,33.9
2018-07-22T06:20:45.000Z,33.9
2018-07-22T06:21:45.000Z,33.9
2018-07-22T06:22:45.000Z,33.9
2018-07-22T06:23:45.000Z,34
2018-07-22T06:25:45.000Z,34
2018-07-22T06:27:45.000Z,33.9
2018-07-22T06:29:45.000Z,33.9
2018-07-22T06:30:45.000Z,33.9
2018-07-22T06:31:45.000Z,33.9
2018-07-22T06:32:45.000Z,34
2018-07-22T06:34:45.000Z,34.1
2018-07-22T06:35:45.000Z,34.1
2018-07-22T06:37:45.000Z,34.1
2018-07-22T06:38:45.000Z,34.1
2018-07-22T06:40:45.000Z,34.1
2018-07-22T06:42:45.000Z,34
2018-07-22T06:44:30.000Z,33.7
2018-07-22T06:45:45.000Z,34
2018-07-22T06:46:45.000Z,34
2018-07-22T06:47:45.000Z,34
2018-07-22T06:49:45.000Z,34.1
2018-07-22T06:51:45.000Z,34.1
2018-07-22T06:53:45.000Z,34.1
2018-07-22T06:54:45.000Z,34.1
2018-07-22T06:55:45.000Z,34.2
2018-07-22T06:57:45.000Z,34.2
2018-07-22T06:59:45.000Z,34.1
2018-07-22T07:01:45.000Z,34.1
2018-07-22T07:03:45.000Z,34.1
2018-07-22T07:05:45.000Z,34.1
2018-07-22T07:07:45.000Z,34
2018-07-22T07:09:45.000Z,34
2018-07-22T07:10:45.000Z,34
2018-07-22T07:11:45.000Z,34.1
2018-07-22T07:12:45.000Z,34.2
2018-07-22T07:14:45.000Z,34.2
2018-07-22T07:15:45.000Z,34.3
2018-07-22T07:17:45.000Z,34.4
2018-07-22T07:19:45.000Z,34.4
2018-07-22T07:20:45.000Z,34.4
2018-07-22T07:22:45.000Z,34.4
2018-07-22T07:23:45.000Z,34.4
2018-07-22T07:24:45.000Z,34.4
2018-07-22T07:26:45.000Z,34.4
2018-07-22T07:27:45.000Z,34.4
2018-07-22T07:28:45.000Z,34.5
2018-07-22T07:29:45.000Z,34.5
2018-07-22T07:31:45.000Z,34.6
2018-07-22T07:33:45.000Z,34.6
2018-07-22T07:35:45.000Z,34.6
2018-07-22T07:37:45.000Z,34.6
2018-07-22T07:38:45.000Z,34.6
2018-07-22T07:40:45.000Z,34.7
2018-07-22T07:42:45.000Z,34.7
2018-07-22T07:44:30.000Z,34.7
2018-07-22T07:45:45.000Z,34.7
2018-07-22T07:46:45.000Z,34.7
2018-07-22T07:48:45.000Z,34.7
2018-07-22T07:50:45.000Z,34.7
2018-07-22T07:51:45.000Z,34.8
2018-07-22T07:52:45.000Z,34.9
2018-07-22T07:53:45.000Z,34.9
2018-07-22T07:54:45.000Z,35
2018-07-22T07:56:45.000Z,35.1
2018-07-22T07:57:45.000Z,35.1
2018-07-22T07:59:30.000Z,35.2
2018-07-22T08:00:45.000Z,35.2
2018-07-22T08:02:45.000Z,35.2
2018-07-22T08:04:45.000Z,35.2
2018-07-22T08:05:45.000Z,35.2
2018-07-22T08:07:45.000Z,35.3
2018-07-22T08:09:45.000Z,35.3
2018-07-22T08:10:45.000Z,35.4
2018-07-22T08:12:45.000Z,35.4
2018-07-22T08:13:45.000Z,35.5
2018-07-22T08:14:45.000Z,35.5
2018-07-22T08:16:45.000Z,35.6
2018-07-22T08:17:45.000Z,35.7
2018-07-22T08:19:45.000Z,35.5
2018-07-22T08:20:45.000Z,35.4
2018-07-22T08:21:45.000Z,35.3
2018-07-22T08:23:45.000Z,35.2
2018-07-22T08:25:30.000Z,35
2018-07-22T08:26:45.000Z,34.9
2018-07-22T08:28:45.000Z,34.8
2018-07-22T08:30:45.000Z,34.8
2018-07-22T08:31:45.000Z,34.9
2018-07-22T08:33:45.000Z,35.2
2018-07-22T08:35:45.000Z,35.4
2018-07-22T08:37:45.000Z,35.6
2018-07-22T08:38:45.000Z,35.7
2018-07-22T08:40:45.000Z,35.7
2018-07-22T08:41:45.000Z,35.6
2018-07-22T08:43:45.000Z,35.3
2018-07-22T08:45:45.000Z,35
2018-07-22T08:47:45.000Z,34.8
2018-07-22T08:48:45.000Z,34.7
2018-07-22T08:50:45.000Z,34.6
2018-07-22T08:52:45.000Z,34.5
2018-07-22T08:54:45.000Z,34.4
2018-07-22T08:55:45.000Z,34.4
2018-07-22T08:56:45.000Z,34.4
2018-07-22T08:58:45.000Z,34.5
2018-07-22T08:59:45.000Z,34.4
2018-07-22T09:01:45.000Z,34.4
2018-07-22T09:02:45.000Z,34.4
2018-07-22T09:04:45.000Z,34.3
2018-07-22T09:05:45.000Z,34.3
2018-07-22T09:07:45.000Z,34.2
2018-07-22T09:09:45.000Z,34.2
2018-07-22T09:11:45.000Z,34.1
2018-07-22T09:13:45.000Z,34
2018-07-22T09:14:45.000Z,34
2018-07-22T09:15:45.000Z,34
2018-07-22T09:17:45.000Z,34
2018-07-22T09:19:30.000Z,34
2018-07-22T09:20:45.000Z,33.9
2018-07-22T09:21:45.000Z,33.9
2018-07-22T09:23:45.000Z,34
2018-07-22T09:25:45.000Z,34
2018-07-22T09:27:30.000Z,34
2018-07-22T09:28:45.000Z,34
2018-07-22T09:29:45.000Z,34
2018-07-22T09:30:45.000Z,34
2018-07-22T09:32:45.000Z,34
2018-07-22T09:33:45.000Z,34.1
2018-07-22T09:34:45.000Z,34.1
2018-07-22T09:35:45.000Z,34.2
2018-07-22T09:36:45.000Z,34.3
2018-07-22T09:38:45.000Z,34.3
2018-07-22T09:40:45.000Z,34.3
2018-07-22T09:41:45.000Z,34.2
2018-07-22T09:42:45.000Z,34.3
2018-07-22T09:44:45.000Z,34.3
2018-07-22T09:46:45.000Z,34.2
2018-07-22T09:48:45.000Z,34.1
2018-07-22T09:49:45.000Z,34.1
2018-07-22T09:51:45.000Z,34.1
2018-07-22T09:52:45.000Z,34.1
2018-07-22T09:53:45.000Z,34.1
2018-07-22T09:55:45.000Z,34
2018-07-22T09:57:45.000Z,34
2018-07-22T09:58:45.000Z,34
2018-07-22T09:59:45.000Z,34
2018-07-22T10:01:45.000Z,34.1
2018-07-22T10:03:45.000Z,34
2018-07-22T10:04:45.000Z,34
2018-07-22T10:05:45.000Z,34.1
2018-07-22T10:07:45.000Z,34.1
2018-07-22T10:09:45.000Z,34
2018-07-22T10:10:45.000Z,34
2018-07-22T10:11:45.000Z,34.1
2018-07-22T10:13:45.000Z,34.1
2018-07-22T10:15:45.000Z,34.1
2018-07-22T10:16:45.000Z,34.1
2018-07-22T10:17:45.000Z,34.1
2018-07-22T10:18:45.000Z,34.2
2018-07-22T10:20:45.000Z,34.2
2018-07-22T10:22:45.000Z,34.1
2018-07-22T10:24:29.000Z,34
2018-07-22T10:25:45.000Z,34
2018-07-22T10:26:45.000Z,34
2018-07-22T10:27:45.000Z,34
2018-07-22T10:28:45.000Z,34.1
2018-07-22T10:29:45.000Z,34.1
2018-07-22T10:31:45.000Z,34.2
2018-07-22T10:33:45.000Z,34.1
2018-07-22T10:35:29.000Z,34.1
2018-07-22T10:36:45.000Z,34.1
2018-07-22T10:37:45.000Z,34.1
2018-07-22T10:39:45.000Z,34.1
2018-07-22T10:41:45.000Z,34
2018-07-22T10:42:45.000Z,34
2018-07-22T10:44:45.000Z,34
2018-07-22T10:46:45.000Z,34
2018-07-22T10:47:45.000Z,34
2018-07-22T10:48:45.000Z,34.1
2018-07-22T10:49:45.000Z,34.1
2018-07-22T10:51:45.000Z,34.1
2018-07-22T10:52:45.000Z,34.1
2018-07-22T10:53:45.000Z,34.1
2018-07-22T10:55:45.000Z,34.1
2018-07-22T10:56:45.000Z,34.1
2018-07-22T10:58:45.000Z,34.1
2018-07-22T10:59:45.000Z,34.1
2018-07-22T11:00:45.000Z,34.2
2018-07-22T11:02:45.000Z,34.2
2018-07-22T11:03:45.000Z,34.2
2018-07-22T11:04:45.000Z,34.3
2018-07-22T11:06:45.000Z,34.3
2018-07-22T11:07:45.000Z,34.3
2018-07-22T11:08:45.000Z,34.3
2018-07-22T11:10:45.000Z,34.4
2018-07-22T11:12:45.000Z,34.2
2018-07-22T11:13:45.000Z,34.2
2018-07-22T11:14:45.000Z,34.2
2018-07-22T11:16:45.000Z,34.2
2018-07-22T11:17:45.000Z,34.3
2018-07-22T11:19:45.000Z,34.3
2018-07-22T11:21:45.000Z,34.2
2018-07-22T11:22:45.000Z,34.2
2018-07-22T11:24:45.000Z,34.2
2018-07-22T11:26:45.000Z,34.2
2018-07-22T11:27:45.000Z,34.2
2018-07-22T11:29:45.000Z,34.2
2018-07-22T11:31:45.000Z,34.1
2018-07-22T11:33:45.000Z,34
2018-07-22T11:34:45.000Z,34
2018-07-22T11:35:45.000Z,34
2018-07-22T11:36:45.000Z,34
2018-07-22T11:37:45.000Z,34.1
2018-07-22T11:38:45.000Z,34.1
2018-07-22T11:40:45.000Z,34.2
2018-07-22T11:42:30.000Z,33.8
2018-07-22T11:43:45.000Z,34.1
2018-07-22T11:45:45.000Z,34.1
2018-07-22T11:46:45.000Z,34.1
2018-07-22T11:47:45.000Z,34.2
2018-07-22T11:49:29.000Z,34.2
2018-07-22T11:50:45.000Z,34.2
2018-07-22T11:51:45.000Z,34.2
2018-07-22T11:53:45.000Z,34.3
2018-07-22T11:55:45.000Z,34.2
2018-07-22T11:56:45.000Z,34.2
2018-07-22T11:58:45.000Z,34.2
2018-07-22T12:00:45.000Z,34.2
2018-07-22T12:02:45.000Z,34.2
2018-07-22T12:04:29.000Z,34.2
2018-07-22T12:05:45.000Z,34.1
2018-07-22T12:06:45.000Z,34.1
2018-07-22T12:07:45.000Z,34.2
2018-07-22T12:09:45.000Z,34.2
2018-07-22T12:10:45.000Z,34.2
2018-07-22T12:11:45.000Z,34.3
2018-07-22T12:12:45.000Z,34.3
2018-07-22T12:13:45.000Z,34.3
2018-07-22T12:15:45.000Z,34.3
2018-07-22T12:16:45.000Z,34.4
2018-07-22T12:17:45.000Z,34.4
2018-07-22T12:19:45.000Z,34.4
2018-07-22T12:21:45.000Z,34.3
2018-07-22T12:23:45.000Z,34.2
2018-07-22T12:25:45.000Z,34.2
2018-07-22T12:27:45.000Z,34.1
2018-07-22T12:28:45.000Z,34.1
2018-07-22T12:30:45.000Z,34.2
2018-07-22T12:32:45.000Z,34.1
2018-07-22T12:34:29.000Z,34.1
2018-07-22T12:35:45.000Z,34.1
2018-07-22T12:37:45.000Z,34.1
2018-07-22T12:39:45.000Z,34
2018-07-22T12:41:45.000Z,34
2018-07-22T12:42:45.000Z,34
2018-07-22T12:43:45.000Z,34.1
2018-07-22T12:45:45.000Z,34.2
2018-07-22T12:47:45.000Z,34.2
2018-07-22T12:48:45.000Z,34.2
2018-07-22T12:49:45.000Z,34.3
2018-07-22T12:51:45.000Z,34.3
2018-07-22T12:52:45.000Z,34.3
2018-07-22T12:53:45.000Z,34.3
2018-07-22T12:55:45.000Z,34.3
2018-07-22T12:56:45.000Z,34.3
2018-07-22T12:58:45.000Z,34.3
2018-07-22T13:00:45.000Z,34.3
2018-07-22T13:01:45.000Z,34.3
2018-07-22T13:02:45.000Z,34.3
2018-07-22T13:04:45.000Z,34.4
2018-07-22T13:05:45.000Z,34.3
2018-07-22T13:07:45.000Z,34.3
2018-07-22T13:08:45.000Z,34.3
2018-07-22T13:10:45.000Z,34.3
2018-07-22T13:11:45.000Z,34.3
2018-07-22T13:13:45.000Z,34.3
2018-07-22T13:15:45.000Z,34.2
2018-07-22T13:17:45.000Z,34.2
2018-07-22T13:19:45.000Z,34.1
2018-07-22T13:20:45.000Z,34.2
2018-07-22T13:22:45.000Z,34.2
2018-07-22T13:23:45.000Z,34.2
2018-07-22T13:24:45.000Z,34.3
2018-07-22T13:26:45.000Z,34.4
2018-07-22T13:28:45.000Z,34.3
2018-07-22T13:29:45.000Z,34.3
2018-07-22T13:31:45.000Z,34.3
2018-07-22T13:32:45.000Z,34.4
2018-07-22T13:34:45.000Z,34.3
2018-07-22T13:35:45.000Z,34.3
2018-07-22T13:37:30.000Z,34.3
2018-07-22T13:38:45.000Z,34.3
2018-07-22T13:40:45.000Z,34.2
2018-07-22T13:42:45.000Z,34.2
2018-07-22T13:44:45.000Z,34.2
2018-07-22T13:45:45.000Z,34.1
2018-07-22T13:47:45.000Z,34.1
2018-07-22T13:49:45.000Z,34.2
2018-07-22T13:50:45.000Z,34.2
2018-07-22T13:52:45.000Z,34.2
2018-07-22T13:53:45.000Z,34.2
2018-07-22T13:55:45.000Z,34.2
2018-07-22T13:56:45.000Z,34.3
2018-07-22T13:58:45.000Z,34.3
2018-07-22T13:59:45.000Z,34.3
2018-07-22T14:01:45.000Z,34.3
2018-07-22T14:03:45.000Z,34.3
2018-07-22T14:05:45.000Z,34.2
2018-07-22T14:07:45.000Z,34.1
2018-07-22T14:09:45.000Z,34.1
2018-07-22T14:11:45.000Z,34
2018-07-22T14:13:45.000Z,34
2018-07-22T14:14:45.000Z,34
2018-07-22T14:16:45.000Z,34.1
2018-07-22T14:18:45.000Z,34.1
2018-07-22T14:19:45.000Z,34.1
2018-07-22T14:21:45.000Z,34.2
2018-07-22T14:22:45.000Z,34.2
2018-07-22T14:23:45.000Z,34.2
2018-07-22T14:24:45.000Z,34.3
2018-07-22T14:25:45.000Z,34.4
2018-07-22T14:27:45.000Z,34.5
2018-07-22T14:28:45.000Z,34.5
2018-07-22T14:29:45.000Z,34.5
2018-07-22T14:31:45.000Z,34.5
2018-07-22T14:32:45.000Z,34.5
2018-07-22T14:34:45.000Z,34.4
2018-07-22T14:35:45.000Z,34.4
2018-07-22T14:37:45.000Z,34.3
2018-07-22T14:38:45.000Z,34.3
2018-07-22T14:40:30.000Z,34.3
2018-07-22T14:41:45.000Z,34.3
2018-07-22T14:43:45.000Z,34.2
2018-07-22T14:45:45.000Z,34.1
2018-07-22T14:46:45.000Z,34.1
2018-07-22T14:47:45.000Z,34.1
2018-07-22T14:48:45.000Z,34.2
2018-07-22T14:50:45.000Z,34.3
2018-07-22T14:51:45.000Z,34.3
2018-07-22T14:53:45.000Z,34.3
2018-07-22T14:55:30.000Z,34.3
2018-07-22T14:56:45.000Z,34.2
2018-07-22T14:57:45.000Z,34.2
2018-07-22T14:58:45.000Z,34.3
2018-07-22T14:59:45.000Z,34.3
2018-07-22T15:01:45.000Z,34.4
2018-07-22T15:03:45.000Z,34.5
2018-07-22T15:04:45.000Z,34.5
2018-07-22T15:06:45.000Z,34.6
2018-07-22T15:07:45.000Z,34.7
2018-07-22T15:08:45.000Z,34.7
2018-07-22T15:10:30.000Z,34.8
2018-07-22T15:11:45.000Z,34.9
2018-07-22T15:12:45.000Z,34.9
2018-07-22T15:14:45.000Z,35
2018-07-22T15:16:45.000Z,35
2018-07-22T15:18:45.000Z,35
2018-07-22T15:19:45.000Z,35
2018-07-22T15:20:45.000Z,35
2018-07-22T15:22:45.000Z,35
2018-07-22T15:23:45.000Z,35.1
2018-07-22T15:25:45.000Z,35.2
2018-07-22T15:26:45.000Z,35.2
2018-07-22T15:28:45.000Z,35.3
2018-07-22T15:29:45.000Z,35.3
2018-07-22T15:31:45.000Z,35.4
2018-07-22T15:32:45.000Z,35.5
2018-07-22T15:34:45.000Z,35.5
2018-07-22T15:36:45.000Z,35.4
2018-07-22T15:37:45.000Z,35.4
2018-07-22T15:39:45.000Z,35.4
2018-07-22T15:40:45.000Z,35.4
2018-07-22T15:42:45.000Z,35.5
2018-07-22T15:43:45.000Z,35.4
2018-07-22T15:44:45.000Z,35.5
2018-07-22T15:45:45.000Z,35.5
2018-07-22T15:47:45.000Z,35.5
2018-07-22T15:49:45.000Z,35.4
2018-07-22T15:50:45.000Z,35.3
2018-07-22T15:52:45.000Z,35.3
2018-07-22T15:54:45.000Z,35.2
2018-07-22T15:55:45.000Z,35.2
2018-07-22T15:57:45.000Z,35.2
2018-07-22T15:59:45.000Z,35.1
2018-07-22T16:01:45.000Z,35
2018-07-22T16:02:45.000Z,35
2018-07-22T16:04:45.000Z,34.9
2018-07-22T16:05:45.000Z,34.9
2018-07-22T16:07:45.000Z,34.8
2018-07-22T16:09:45.000Z,34.7
2018-07-22T16:11:45.000Z,34.6
2018-07-22T16:13:45.000Z,34.6
2018-07-22T16:15:45.000Z,34.6
2018-07-22T16:17:45.000Z,34.6
2018-07-22T16:18:45.000Z,34.6
2018-07-22T16:20:45.000Z,34.6
2018-07-22T16:21:45.000Z,34.6
2018-07-22T16:23:45.000Z,34.5
2018-07-22T16:25:45.000Z,34.5
2018-07-22T16:26:45.000Z,34.5
2018-07-22T16:28:45.000Z,34.6
2018-07-22T16:29:45.000Z,34.6
2018-07-22T16:31:30.000Z,34.4
2018-07-22T16:32:45.000Z,34.6
2018-07-22T16:34:45.000Z,34.6
2018-07-22T16:35:45.000Z,34.6
2018-07-22T16:37:45.000Z,34.7
2018-07-22T16:39:45.000Z,34.7
2018-07-22T16:40:45.000Z,34.7
2018-07-22T16:42:45.000Z,34.7
2018-07-22T16:43:45.000Z,34.7
2018-07-22T16:45:45.000Z,34.7
2018-07-22T16:46:45.000Z,34.8
2018-07-22T16:47:45.000Z,34.8
2018-07-22T16:49:45.000Z,34.8
2018-07-22T16:51:45.000Z,34.8
2018-07-22T16:52:45.000Z,34.8
2018-07-22T16:54:45.000Z,34.8
2018-07-22T16:55:45.000Z,34.9
2018-07-22T16:57:45.000Z,34.9
2018-07-22T16:59:45.000Z,34.8
2018-07-22T17:01:45.000Z,34.8
2018-07-22T17:02:45.000Z,34.8
2018-07-22T17:04:45.000Z,34.8
2018-07-22T17:06:45.000Z,34.8
2018-07-22T17:08:45.000Z,34.7
2018-07-22T17:10:45.000Z,34.7
2018-07-22T17:12:45.000Z,34.7
2018-07-22T17:14:45.000Z,34.6
2018-07-22T17:16:45.000Z,34.6
2018-07-22T17:18:45.000Z,34.5
2018-07-22T17:20:45.000Z,34.5
2018-07-22T17:22:45.000Z,34.5
2018-07-22T17:24:45.000Z,34.5
2018-07-22T17:25:45.000Z,34.5
2018-07-22T17:27:30.000Z,34.6
2018-07-22T17:28:45.000Z,34.6
2018-07-22T17:29:45.000Z,34.6
2018-07-22T17:31:45.000Z,34.7
2018-07-22T17:32:45.000Z,34.7
2018-07-22T17:34:45.000Z,34.7
2018-07-22T17:35:45.000Z,34.7
2018-07-22T17:37:45.000Z,34.7
2018-07-22T17:39:45.000Z,34.6
2018-07-22T17:41:30.000Z,34.6
2018-07-22T17:42:45.000Z,34.5
2018-07-22T17:44:45.000Z,34.5
2018-07-22T17:45:45.000Z,34.5
2018-07-22T17:47:30.000Z,34.5
2018-07-22T17:48:45.000Z,34.5
2018-07-22T17:49:45.000Z,34.5
2018-07-22T17:50:45.000Z,34.6
2018-07-22T17:51:45.000Z,34.6
2018-07-22T17:53:45.000Z,34.6
2018-07-22T17:54:45.000Z,34.5
2018-07-22T17:56:45.000Z,34.5
2018-07-22T17:57:45.000Z,34.6
2018-07-22T17:59:45.000Z,34.6
2018-07-22T18:01:45.000Z,34.5
2018-07-22T18:03:45.000Z,34.5
2018-07-22T18:05:45.000Z,34.5
2018-07-22T18:06:45.000Z,34.5
2018-07-22T18:08:45.000Z,34.5
2018-07-22T18:09:45.000Z,34.5
2018-07-22T18:11:45.000Z,34.5
2018-07-22T18:13:45.000Z,34.5
2018-07-22T18:14:45.000Z,34.5
2018-07-22T18:16:45.000Z,34.5
2018-07-22T18:17:45.000Z,34.4
2018-07-22T18:19:30.000Z,34.5
2018-07-22T18:20:45.000Z,34.4
2018-07-22T18:22:45.000Z,34.3
2018-07-22T18:23:45.000Z,34.3
2018-07-22T18:25:45.000Z,34.3
2018-07-22T18:26:45.000Z,34.3
2018-07-22T18:28:45.000Z,34.3
2018-07-22T18:30:45.000Z,34.3
2018-07-22T18:32:45.000Z,34.3
2018-07-22T18:34:45.000Z,34.3
2018-07-22T18:35:45.000Z,34.3
2018-07-22T18:37:30.000Z,34.3
2018-07-22T18:38:45.000Z,34.2
2018-07-22T18:39:45.000Z,34.3
2018-07-22T18:40:45.000Z,34.3
2018-07-22T18:42:45.000Z,34.3
2018-07-22T18:44:30.000Z,34.3
2018-07-22T18:45:45.000Z,34.2
2018-07-22T18:47:45.000Z,34.2
2018-07-22T18:49:45.000Z,34.2
2018-07-22T18:50:45.000Z,34.2
2018-07-22T18:52:45.000Z,34.1
2018-07-22T18:54:45.000Z,34.1
2018-07-22T18:56:45.000Z,34
2018-07-22T18:57:45.000Z,34
2018-07-22T18:59:45.000Z,33.9
2018-07-22T19:00:45.000Z,33.9
2018-07-22T19:02:45.000Z,33.9
2018-07-22T19:04:45.000Z,33.9
2018-07-22T19:05:45.000Z,34
2018-07-22T19:06:45.000Z,34
2018-07-22T19:07:45.000Z,34
2018-07-22T19:09:45.000Z,34.1
2018-07-22T19:11:45.000Z,34.1
2018-07-22T19:12:45.000Z,34.1
2018-07-22T19:14:30.000Z,34.2
2018-07-22T19:15:45.000Z,34.1
2018-07-22T19:16:45.000Z,34.1
2018-07-22T19:18:30.000Z,34.1
2018-07-22T19:19:45.000Z,34.1
2018-07-22T19:20:45.000Z,34.1
2018-07-22T19:22:30.000Z,34.1
2018-07-22T19:23:45.000Z,34
2018-07-22T19:24:45.000Z,34.1
2018-07-22T19:26:45.000Z,34.1
2018-07-22T19:28:45.000Z,34.1
2018-07-22T19:30:45.000Z,34
2018-07-22T19:32:45.000Z,33.8
2018-07-22T19:34:45.000Z,33.7
2018-07-22T19:35:45.000Z,33.7
2018-07-22T19:37:45.000Z,33.7
2018-07-22T19:39:45.000Z,33.7
2018-07-22T19:41:30.000Z,33.8
2018-07-22T19:42:45.000Z,33.7
2018-07-22T19:43:45.000Z,33.8
2018-07-22T19:45:45.000Z,33.8
2018-07-22T19:46:45.000Z,33.8
2018-07-22T19:48:45.000Z,33.8
2018-07-22T19:50:45.000Z,33.8
2018-07-22T19:52:45.000Z,33.8
2018-07-22T19:53:45.000Z,33.8
2018-07-22T19:55:45.000Z,33.8
2018-07-22T19:56:45.000Z,33.9
2018-07-22T19:58:30.000Z,33.9
2018-07-22T19:59:45.000Z,33.9
2018-07-22T20:00:45.000Z,33.9
2018-07-22T20:02:45.000Z,33.9
2018-07-22T20:04:30.000Z,33.9
2018-07-22T20:05:45.000Z,33.9
2018-07-22T20:07:45.000Z,33.9
2018-07-22T20:09:45.000Z,33.8
2018-07-22T20:11:45.000Z,33.8
2018-07-22T20:13:45.000Z,33.8
2018-07-22T20:15:45.000Z,33.8
2018-07-22T20:17:45.000Z,33.8
2018-07-22T20:19:45.000Z,33.7
2018-07-22T20:21:45.000Z,33.7
2018-07-22T20:23:45.000Z,33.7
2018-07-22T20:24:45.000Z,33.7
2018-07-22T20:26:29.000Z,33.8
2018-07-22T20:27:45.000Z,33.7
2018-07-22T20:29:29.000Z,33.8
2018-07-22T20:30:45.000Z,33.7
2018-07-22T20:31:45.000Z,33.7
2018-07-22T20:33:45.000Z,33.8
2018-07-22T20:35:45.000Z,33.8
2018-07-22T20:36:45.000Z,33.8
2018-07-22T20:38:45.000Z,33.8
2018-07-22T20:39:45.000Z,33.9
2018-07-22T20:41:29.000Z,33.9
2018-07-22T20:42:45.000Z,33.8
2018-07-22T20:44:45.000Z,33.7
2018-07-22T20:46:45.000Z,33.6